createdAt,value
2022-11-24T00:01:23.243Z,51.46
2022-11-24T00:03:55.810Z,51.31
2022-11-24T00:06:24.746Z,50.88
2022-11-24T00:08:54.023Z,51.13
2022-11-24T00:11:27.872Z,51.13
2022-11-24T00:13:57.481Z,51.02
2022-11-24T00:16:31.833Z,50.77
2022-11-24T00:19:02.046Z,51.18
2022-11-24T00:21:31.573Z,50.79
2022-11-24T00:24:00.007Z,50.56
2022-11-24T00:26:30.249Z,50.97
2022-11-24T00:29:00.902Z,50.87
2022-11-24T00:31:31.419Z,50.91
2022-11-24T00:34:02.334Z,50.69
2022-11-24T00:36:32.648Z,50.76
2022-11-24T00:39:03.823Z,50.58
2022-11-24T00:41:33.093Z,50.76
2022-11-24T00:44:01.572Z,50.48
2022-11-24T00:46:31.316Z,50.63
2022-11-24T00:49:02.894Z,51.04
2022-11-24T00:51:31.356Z,50.95
2022-11-24T00:54:01.092Z,50.62
2022-11-24T00:56:30.193Z,50.48
2022-11-24T00:58:58.668Z,50.54
2022-11-24T01:01:28.851Z,50.77
2022-11-24T01:04:01.289Z,51.09
2022-11-24T01:06:30.982Z,50.87
2022-11-24T01:08:59.404Z,50.82
2022-11-24T01:11:54.738Z,50.53
2022-11-24T01:14:25.128Z,50.85
2022-11-24T01:16:53.728Z,50.69
2022-11-24T01:19:22.824Z,50.88
2022-11-24T01:21:51.196Z,50.85
2022-11-24T01:24:19.812Z,50.85
2022-11-24T01:26:48.218Z,50.57
2022-11-24T01:29:16.854Z,50.49
2022-11-24T01:31:45.220Z,50.63
2022-11-24T01:34:13.645Z,50.66
2022-11-24T01:36:41.966Z,50.94
2022-11-24T01:39:10.514Z,51.24
2022-11-24T01:41:39.282Z,51.32
2022-11-24T01:44:27.522Z,50.80
2022-11-24T01:47:04.857Z,50.76
2022-11-24T01:50:14.065Z,50.66
2022-11-24T01:52:53.805Z,50.67
2022-11-24T01:55:28.586Z,51.01
2022-11-24T01:58:04.218Z,50.79
2022-11-24T02:00:36.199Z,50.88
2022-11-24T02:03:04.631Z,50.84
2022-11-24T02:05:40.667Z,51.09
2022-11-24T02:08:17.050Z,50.77
2022-11-24T02:10:46.055Z,50.70
2022-11-24T02:13:15.509Z,51.15
2022-11-24T02:15:45.058Z,50.75
2022-11-24T02:18:13.407Z,50.73
2022-11-24T02:20:42.085Z,50.93
2022-11-24T02:23:22.881Z,50.79
2022-11-24T02:26:11.699Z,50.91
2022-11-24T02:28:40.339Z,50.98
2022-11-24T02:31:10.345Z,50.71
2022-11-24T02:33:38.907Z,50.74
2022-11-24T02:36:08.459Z,51.15
2022-11-24T02:38:36.894Z,50.98
2022-11-24T02:41:11.824Z,50.62
2022-11-24T02:43:45.375Z,50.57
2022-11-24T02:46:14.367Z,50.20
2022-11-24T02:48:42.965Z,50.71
2022-11-24T02:51:11.329Z,50.27
2022-11-24T02:53:39.758Z,50.42
2022-11-24T02:56:08.116Z,50.59
2022-11-24T02:58:36.918Z,50.39
2022-11-24T03:01:05.602Z,50.56
2022-11-24T03:03:34.173Z,50.22
2022-11-24T03:06:02.560Z,50.24
2022-11-24T03:08:30.939Z,49.92
2022-11-24T03:10:59.337Z,50.33
2022-11-24T03:13:27.747Z,50.10
2022-11-24T03:15:56.277Z,50.01
2022-11-24T03:18:25.715Z,50.20
2022-11-24T03:20:59.298Z,50.35
2022-11-24T03:23:27.754Z,49.90
2022-11-24T03:26:06.965Z,49.79
2022-11-24T03:28:35.391Z,50.08
2022-11-24T03:31:04.046Z,50.54
2022-11-24T03:33:32.758Z,50.61
2022-11-24T03:36:01.337Z,50.01
2022-11-24T03:38:29.732Z,50.31
2022-11-24T03:40:58.096Z,50.18
2022-11-24T03:43:26.429Z,50.30
2022-11-24T03:45:56.430Z,50.40
2022-11-24T03:48:24.979Z,50.18
2022-11-24T03:50:56.008Z,50.45
2022-11-24T03:53:25.788Z,50.64
2022-11-24T03:55:54.859Z,50.57
2022-11-24T03:58:23.888Z,50.46
2022-11-24T04:00:53.821Z,50.60
2022-11-24T04:03:22.507Z,50.79
2022-11-24T04:05:51.471Z,51.07
2022-11-24T04:08:20.155Z,51.19
2022-11-24T04:10:53.965Z,50.69
2022-11-24T04:13:24.433Z,50.92
2022-11-24T04:15:53.118Z,50.55
2022-11-24T04:18:22.086Z,50.56
2022-11-24T04:20:51.500Z,50.61
2022-11-24T04:23:20.011Z,50.17
2022-11-24T04:25:48.679Z,50.93
2022-11-24T04:28:17.102Z,50.28
2022-11-24T04:30:45.529Z,50.52
2022-11-24T04:33:13.989Z,51.96
2022-11-24T04:35:42.368Z,51.87
2022-11-24T04:38:10.768Z,51.21
2022-11-24T04:40:39.191Z,51.07
2022-11-24T04:43:09.168Z,50.82
2022-11-24T04:45:38.223Z,50.99
2022-11-24T04:48:06.610Z,50.68
2022-11-24T04:50:36.507Z,51.29
2022-11-24T04:53:04.844Z,50.99
2022-11-24T04:55:33.282Z,51.02
2022-11-24T04:58:01.687Z,51.67
2022-11-24T05:00:31.036Z,51.21
2022-11-24T05:02:59.454Z,51.09
2022-11-24T05:05:27.876Z,50.95
2022-11-24T05:07:58.303Z,51.20
2022-11-24T05:10:36.272Z,51.27
2022-11-24T05:13:07.230Z,51.36
2022-11-24T05:15:38.170Z,51.39
2022-11-24T05:18:08.636Z,51.60
2022-11-24T05:20:37.327Z,51.54
2022-11-24T05:23:07.722Z,51.61
2022-11-24T05:25:36.487Z,51.72
2022-11-24T05:28:09.911Z,51.35
2022-11-24T05:30:39.671Z,51.07
2022-11-24T05:33:16.110Z,51.59
2022-11-24T05:35:45.325Z,51.41
2022-11-24T05:38:13.749Z,51.60
2022-11-24T05:40:42.822Z,51.54
2022-11-24T05:43:13.617Z,51.25
2022-11-24T05:45:42.872Z,51.36
2022-11-24T05:48:14.627Z,51.37
2022-11-24T05:50:43.080Z,51.96
2022-11-24T05:53:13.122Z,52.02
2022-11-24T05:55:41.543Z,52.79
2022-11-24T05:58:10.302Z,52.12
2022-11-24T06:00:38.692Z,51.66
2022-11-24T06:03:07.195Z,52.05
2022-11-24T06:05:35.719Z,51.28
2022-11-24T06:08:04.614Z,51.76
2022-11-24T06:10:33.151Z,52.01
2022-11-24T06:13:06.246Z,51.11
2022-11-24T06:15:35.141Z,50.81
2022-11-24T06:18:03.767Z,51.42
2022-11-24T06:20:32.994Z,51.21
2022-11-24T06:23:01.758Z,51.49
2022-11-24T06:25:31.066Z,51.14
2022-11-24T06:28:03.916Z,51.06
2022-11-24T06:30:32.471Z,51.15
2022-11-24T06:33:01.164Z,51.59
2022-11-24T06:35:29.580Z,50.76
2022-11-24T06:37:58.128Z,50.85
2022-11-24T06:40:26.535Z,50.49
2022-11-24T06:42:55.491Z,50.79
2022-11-24T06:45:23.873Z,50.28
2022-11-24T06:47:56.139Z,50.37
2022-11-24T06:50:26.957Z,50.46
2022-11-24T06:52:59.022Z,50.71
2022-11-24T06:55:27.550Z,50.21
2022-11-24T06:57:55.907Z,50.25
2022-11-24T07:00:25.466Z,50.09
2022-11-24T07:02:53.824Z,50.33
2022-11-24T07:05:22.562Z,50.21
2022-11-24T07:07:51.207Z,50.39
2022-11-24T07:10:19.664Z,50.47
2022-11-24T07:12:48.131Z,51.46
2022-11-24T07:15:16.619Z,51.30
2022-11-24T07:17:44.983Z,50.98
2022-11-24T07:20:13.427Z,50.64
2022-11-24T07:22:42.803Z,50.56
2022-11-24T07:25:11.346Z,50.76
2022-11-24T07:27:40.392Z,50.49
2022-11-24T07:30:09.195Z,50.60
2022-11-24T07:32:37.672Z,50.23
2022-11-24T07:35:06.783Z,50.36
2022-11-24T07:37:35.190Z,50.00
2022-11-24T07:40:04.129Z,50.22
2022-11-24T07:42:32.551Z,50.29
2022-11-24T07:45:01.012Z,50.26
2022-11-24T07:47:29.664Z,50.36
2022-11-24T07:49:58.286Z,50.23
2022-11-24T07:52:27.796Z,50.39
2022-11-24T07:54:56.291Z,50.29
2022-11-24T07:57:24.630Z,51.58
2022-11-24T07:59:53.138Z,51.18
2022-11-24T08:02:21.801Z,50.61
2022-11-24T08:04:50.245Z,50.60
2022-11-24T08:07:18.728Z,50.81
2022-11-24T08:09:47.300Z,50.47
2022-11-24T08:12:17.468Z,51.05
2022-11-24T08:14:45.904Z,50.97
2022-11-24T08:17:14.456Z,51.71
2022-11-24T08:19:43.225Z,50.87
2022-11-24T08:22:11.760Z,51.38
2022-11-24T08:24:46.218Z,51.44
2022-11-24T08:27:19.010Z,51.82
2022-11-24T08:29:47.389Z,51.13
2022-11-24T08:32:21.714Z,50.81
2022-11-24T08:34:52.107Z,50.81
2022-11-24T08:37:20.781Z,50.62
2022-11-24T08:39:49.296Z,50.25
2022-11-24T08:42:17.673Z,50.23
2022-11-24T08:44:46.235Z,51.19
2022-11-24T08:47:14.692Z,51.00
2022-11-24T08:49:43.057Z,51.11
2022-11-24T08:52:11.591Z,50.42
2022-11-24T08:54:40.835Z,50.60
2022-11-24T08:57:09.363Z,50.77
2022-11-24T08:59:37.800Z,51.63
2022-11-24T09:02:10.665Z,51.22
2022-11-24T09:04:39.505Z,50.61
2022-11-24T09:07:07.969Z,50.61
2022-11-24T09:09:36.396Z,50.29
2022-11-24T09:12:07.515Z,50.16
2022-11-24T09:14:38.258Z,50.25
2022-11-24T09:17:06.785Z,50.29
2022-11-24T09:19:35.651Z,50.52
2022-11-24T09:22:04.469Z,50.45
2022-11-24T09:24:32.983Z,50.77
2022-11-24T09:27:01.396Z,50.52
2022-11-24T09:29:36.093Z,50.74
2022-11-24T09:32:07.030Z,50.28
2022-11-24T09:34:36.754Z,50.37
2022-11-24T09:37:05.371Z,50.20
2022-11-24T09:39:34.004Z,50.41
2022-11-24T09:42:05.566Z,51.25
2022-11-24T09:44:48.694Z,50.50
2022-11-24T09:47:59.071Z,50.11
2022-11-24T09:50:36.189Z,49.63
2022-11-24T09:53:23.202Z,49.68
2022-11-24T09:55:55.250Z,49.69
2022-11-24T09:58:42.958Z,50.41
2022-11-24T10:01:18.894Z,50.32
2022-11-24T10:03:51.905Z,49.65
2022-11-24T10:06:27.783Z,50.60
2022-11-24T10:09:08.569Z,50.68
2022-11-24T10:11:42.126Z,50.08
2022-11-24T10:14:32.313Z,50.98
2022-11-24T10:17:12.840Z,50.78
2022-11-24T10:19:44.238Z,49.88
2022-11-24T10:22:29.072Z,50.16
2022-11-24T10:25:13.203Z,49.45
2022-11-24T10:27:48.575Z,49.75
2022-11-24T10:30:20.236Z,50.28
2022-11-24T10:32:55.404Z,49.63
2022-11-24T10:35:37.912Z,50.26
2022-11-24T10:38:16.427Z,49.47
2022-11-24T10:40:57.728Z,50.48
2022-11-24T10:43:30.538Z,49.61
2022-11-24T10:46:14.054Z,49.41
2022-11-24T10:48:49.166Z,48.87
2022-11-24T10:51:33.029Z,49.01
2022-11-24T10:54:10.211Z,48.80
2022-11-24T10:56:40.506Z,48.47
2022-11-24T10:59:25.076Z,47.87
2022-11-24T11:01:54.900Z,48.04
2022-11-24T11:04:35.336Z,48.12
2022-11-24T11:07:21.365Z,47.83
2022-11-24T11:09:49.885Z,48.16
2022-11-24T11:15:31.251Z,48.54
2022-11-24T11:18:01.328Z,47.88
2022-11-24T11:20:34.087Z,47.73
2022-11-24T11:23:15.622Z,47.40
2022-11-24T11:25:44.087Z,47.71
2022-11-24T11:28:29.041Z,47.15
2022-11-24T11:34:21.815Z,46.82
2022-11-24T11:36:54.236Z,48.18
2022-11-24T11:39:34.889Z,47.75
2022-11-24T11:45:34.875Z,47.26
2022-11-24T11:48:15.089Z,47.22
2022-11-24T11:51:21.638Z,46.85
2022-11-24T11:54:07.396Z,46.92
2022-11-24T11:56:45.055Z,46.53
2022-11-24T11:59:36.530Z,46.87
2022-11-24T12:02:23.552Z,47.40
2022-11-24T12:04:53.924Z,46.57
2022-11-24T12:07:43.370Z,46.68
2022-11-24T12:10:40.994Z,46.87
2022-11-24T12:13:37.918Z,46.35
2022-11-24T12:16:34.327Z,45.97
2022-11-24T12:19:21.819Z,46.43
2022-11-24T12:22:07.226Z,46.46
2022-11-24T12:24:50.900Z,46.58
2022-11-24T12:27:51.392Z,46.19
2022-11-24T12:30:22.003Z,45.99
2022-11-24T12:33:21.272Z,45.86
2022-11-24T12:36:03.660Z,46.63
2022-11-24T12:38:50.254Z,45.67
2022-11-24T12:41:43.954Z,46.17
2022-11-24T12:44:43.374Z,45.85
2022-11-24T12:47:21.793Z,45.72
2022-11-24T12:50:08.973Z,45.54
2022-11-24T12:52:46.923Z,45.67
2022-11-24T12:55:19.774Z,45.37
2022-11-24T12:58:09.326Z,46.10
2022-11-24T13:01:04.218Z,45.36
2022-11-24T13:03:52.875Z,45.51
2022-11-24T13:06:29.349Z,45.29
2022-11-24T13:08:57.986Z,45.79
2022-11-24T13:11:36.803Z,45.86
2022-11-24T13:14:19.336Z,45.47
2022-11-24T13:17:21.755Z,45.88
2022-11-24T13:19:42.031Z,45.50
2022-11-24T13:22:16.632Z,45.30
2022-11-24T13:24:45.313Z,45.72
2022-11-24T13:27:27.047Z,45.76
2022-11-24T13:29:56.596Z,45.42
2022-11-24T13:32:24.908Z,45.61
2022-11-24T13:34:56.106Z,45.86
2022-11-24T13:37:34.412Z,45.54
2022-11-24T13:40:13.639Z,45.50
2022-11-24T13:42:57.510Z,44.98
2022-11-24T13:45:49.265Z,45.52
2022-11-24T13:48:21.730Z,45.20
2022-11-24T13:50:50.827Z,45.49
2022-11-24T13:53:56.826Z,45.35
2022-11-24T13:56:28.107Z,44.89
2022-11-24T13:59:03.031Z,45.61
2022-11-24T14:01:40.895Z,45.61
2022-11-24T14:04:30.934Z,45.34
2022-11-24T14:07:08.283Z,45.32
2022-11-24T14:09:47.105Z,45.53
2022-11-24T14:12:20.765Z,45.41
2022-11-24T14:14:51.338Z,45.75
2022-11-24T14:17:24.549Z,46.12
2022-11-24T14:19:55.468Z,46.28
2022-11-24T14:22:31.270Z,45.96
2022-11-24T14:25:01.985Z,45.92
2022-11-24T14:27:40.042Z,45.89
2022-11-24T14:30:13.310Z,45.94
2022-11-24T14:32:53.804Z,45.91
2022-11-24T14:35:26.983Z,45.86
2022-11-24T14:37:55.940Z,46.07
2022-11-24T14:40:48.444Z,45.48
2022-11-24T14:43:16.745Z,45.63
2022-11-24T14:45:55.129Z,46.13
2022-11-24T14:48:27.572Z,46.04
2022-11-24T14:51:07.428Z,46.21
2022-11-24T14:53:36.704Z,46.04
2022-11-24T14:56:35.671Z,45.85
2022-11-24T14:59:20.112Z,46.38
2022-11-24T15:01:48.979Z,46.39
2022-11-24T15:04:38.975Z,46.45
2022-11-24T15:07:13.260Z,46.64
2022-11-24T15:09:47.464Z,47.02
2022-11-24T15:12:34.292Z,46.77
2022-11-24T15:15:26.144Z,47.05
2022-11-24T15:18:00.191Z,46.73
2022-11-24T15:20:43.443Z,46.50
2022-11-24T15:23:18.900Z,46.44
2022-11-24T15:25:50.458Z,46.48
2022-11-24T15:28:22.669Z,46.80
2022-11-24T15:30:52.317Z,46.48
2022-11-24T15:33:23.286Z,47.09
2022-11-24T15:35:52.277Z,47.20
2022-11-24T15:38:22.429Z,47.05
2022-11-24T15:40:53.231Z,47.18
2022-11-24T15:43:29.467Z,47.16
2022-11-24T15:45:59.024Z,47.35
2022-11-24T15:48:28.824Z,47.21
2022-11-24T15:50:59.122Z,47.04
2022-11-24T15:53:38.941Z,47.09
2022-11-24T15:56:12.544Z,46.95
2022-11-24T15:58:41.178Z,47.24
2022-11-24T16:01:09.627Z,47.58
2022-11-24T16:03:47.040Z,47.84
2022-11-24T16:06:24.286Z,47.94
2022-11-24T16:08:54.465Z,47.74
2022-11-24T16:11:24.790Z,47.81
2022-11-24T16:13:54.319Z,47.80
2022-11-24T16:16:25.195Z,47.49
2022-11-24T16:18:54.055Z,47.82
2022-11-24T16:21:23.207Z,47.94
2022-11-24T16:23:51.803Z,47.65
2022-11-24T16:26:20.365Z,47.74
2022-11-24T16:28:48.994Z,48.05
2022-11-24T16:31:18.947Z,48.35
2022-11-24T16:33:47.739Z,48.17
2022-11-24T16:36:16.370Z,48.33
2022-11-24T16:38:49.038Z,48.66
2022-11-24T16:41:17.655Z,48.57
2022-11-24T16:43:46.257Z,48.49
2022-11-24T16:46:16.498Z,48.62
2022-11-24T16:48:46.461Z,48.27
2022-11-24T16:51:16.270Z,48.09
2022-11-24T16:53:44.771Z,48.29
2022-11-24T16:56:17.454Z,48.14
2022-11-24T16:58:47.996Z,48.08
2022-11-24T17:01:16.640Z,48.29
2022-11-24T17:03:45.445Z,48.64
2022-11-24T17:06:16.197Z,48.61
2022-11-24T17:08:46.384Z,48.55
2022-11-24T17:11:23.993Z,48.24
2022-11-24T17:13:52.574Z,48.22
2022-11-24T17:16:22.538Z,48.29
2022-11-24T17:18:51.631Z,48.01
2022-11-24T17:21:22.857Z,47.86
2022-11-24T17:23:59.224Z,48.06
2022-11-24T17:26:28.189Z,47.93
2022-11-24T17:28:56.864Z,47.91
2022-11-24T17:31:32.092Z,47.80
2022-11-24T17:34:01.937Z,48.44
2022-11-24T17:36:32.396Z,48.12
2022-11-24T17:39:04.412Z,47.93
2022-11-24T17:41:33.575Z,48.06
2022-11-24T17:44:01.977Z,47.87
2022-11-24T17:46:31.103Z,47.66
2022-11-24T17:48:59.538Z,47.82
2022-11-24T17:51:27.966Z,48.17
2022-11-24T17:53:57.560Z,48.19
2022-11-24T17:56:27.699Z,47.83
2022-11-24T17:59:00.478Z,47.93
2022-11-24T18:01:31.466Z,48.75
2022-11-24T18:04:00.034Z,48.25
2022-11-24T18:06:28.791Z,48.05
2022-11-24T18:08:57.983Z,48.20
2022-11-24T18:11:31.526Z,48.02
2022-11-24T18:14:03.565Z,48.13
2022-11-24T18:16:35.335Z,48.27
2022-11-24T18:19:09.841Z,48.12
2022-11-24T18:21:40.924Z,48.22
2022-11-24T18:24:10.950Z,48.27
2022-11-24T18:26:43.273Z,48.80
2022-11-24T18:29:11.997Z,48.34
2022-11-24T18:31:40.550Z,48.41
2022-11-24T18:34:09.087Z,48.39
2022-11-24T18:36:37.630Z,48.02
2022-11-24T18:39:08.024Z,48.37
2022-11-24T18:41:36.608Z,48.35
2022-11-24T18:44:08.625Z,48.65
2022-11-24T18:46:38.004Z,48.77
2022-11-24T18:49:07.251Z,48.40
2022-11-24T18:51:36.972Z,48.21
2022-11-24T18:54:06.483Z,48.46
2022-11-24T18:56:35.068Z,48.10
2022-11-24T18:59:03.697Z,48.45
2022-11-24T19:01:32.445Z,47.98
2022-11-24T19:04:02.789Z,47.89
2022-11-24T19:06:33.680Z,47.90
2022-11-24T19:09:05.087Z,47.95
2022-11-24T19:11:37.055Z,48.10
2022-11-24T19:14:07.839Z,47.84
2022-11-24T19:16:36.349Z,48.22
2022-11-24T19:19:05.244Z,48.24
2022-11-24T19:21:37.154Z,48.04
2022-11-24T19:24:07.768Z,47.95
2022-11-24T19:26:36.450Z,47.81
2022-11-24T19:29:06.739Z,47.93
2022-11-24T19:31:35.924Z,47.82
2022-11-24T19:34:05.825Z,47.76
2022-11-24T19:36:34.289Z,47.81
2022-11-24T19:39:04.870Z,47.51
2022-11-24T19:41:34.038Z,48.13
2022-11-24T19:44:02.616Z,47.81
2022-11-24T19:46:31.140Z,47.76
2022-11-24T19:49:01.148Z,47.59
2022-11-24T19:51:34.950Z,47.84
2022-11-24T19:54:05.925Z,48.98
2022-11-24T19:56:36.485Z,48.49
2022-11-24T19:59:06.471Z,48.63
2022-11-24T20:01:38.705Z,48.18
2022-11-24T20:04:13.605Z,48.39
2022-11-24T20:06:46.946Z,48.18
2022-11-24T20:09:17.668Z,47.99
2022-11-24T20:11:46.999Z,48.16
2022-11-24T20:14:18.268Z,48.55
2022-11-24T20:16:48.079Z,48.92
2022-11-24T20:19:17.976Z,49.57
2022-11-24T20:21:47.813Z,49.07
2022-11-24T20:24:19.111Z,49.04
2022-11-24T20:26:54.194Z,48.54
2022-11-24T20:29:22.619Z,48.44
2022-11-24T20:31:53.479Z,48.18
2022-11-24T20:34:22.656Z,48.63
2022-11-24T20:36:52.888Z,48.97
2022-11-24T20:39:25.372Z,48.62
2022-11-24T20:41:55.095Z,48.53
2022-11-24T20:44:26.240Z,48.21
2022-11-24T20:46:56.756Z,48.18
2022-11-24T20:49:26.039Z,48.06
2022-11-24T20:51:56.966Z,47.98
2022-11-24T20:54:26.378Z,48.61
2022-11-24T20:56:54.847Z,48.15
2022-11-24T20:59:24.727Z,48.30
2022-11-24T21:01:55.276Z,48.18
2022-11-24T21:04:26.707Z,47.95
2022-11-24T21:06:56.339Z,48.31
2022-11-24T21:09:27.082Z,48.26
2022-11-24T21:11:55.530Z,48.79
2022-11-24T21:14:24.462Z,48.46
2022-11-24T21:16:53.093Z,48.49
2022-11-24T21:19:21.568Z,49.15
2022-11-24T21:21:50.077Z,48.72
2022-11-24T21:24:21.505Z,48.21
2022-11-24T21:26:52.472Z,48.16
2022-11-24T21:29:23.310Z,47.92
2022-11-24T21:31:52.274Z,47.87
2022-11-24T21:34:20.874Z,48.33
2022-11-24T21:36:49.302Z,48.22
2022-11-24T21:39:18.520Z,47.84
2022-11-24T21:41:47.681Z,48.59
2022-11-24T21:44:16.376Z,48.35
2022-11-24T21:46:49.557Z,48.16
2022-11-24T21:49:19.460Z,47.89
2022-11-24T21:51:47.813Z,48.15
2022-11-24T21:54:16.137Z,48.60
2022-11-24T21:56:45.514Z,48.77
2022-11-24T21:59:13.879Z,48.65
2022-11-24T22:01:42.389Z,49.22
2022-11-24T22:04:11.809Z,49.05
2022-11-24T22:06:40.271Z,49.13
2022-11-24T22:09:10.502Z,48.85
2022-11-24T22:11:42.005Z,48.75
2022-11-24T22:14:10.978Z,48.37
2022-11-24T22:16:39.358Z,48.43
2022-11-24T22:19:07.834Z,48.66
2022-11-24T22:21:36.549Z,48.33
2022-11-24T22:24:05.181Z,48.93
2022-11-24T22:26:34.584Z,49.13
2022-11-24T22:29:03.315Z,48.98
2022-11-24T22:31:32.768Z,48.74
2022-11-24T22:34:01.565Z,48.68
2022-11-24T22:36:30.932Z,48.35
2022-11-24T22:39:05.590Z,48.85
2022-11-24T22:41:35.402Z,49.13
2022-11-24T22:44:05.402Z,48.59
2022-11-24T22:46:34.008Z,48.74
2022-11-24T22:49:02.573Z,48.30
2022-11-24T22:51:34.532Z,48.43
2022-11-24T22:54:04.502Z,47.87
2022-11-24T22:56:33.946Z,48.22
2022-11-24T22:59:04.455Z,48.11
2022-11-24T23:01:33.863Z,48.12
2022-11-24T23:04:03.781Z,48.22
2022-11-24T23:06:33.675Z,48.33
2022-11-24T23:09:03.655Z,48.24
2022-11-24T23:11:37.985Z,47.73
2022-11-24T23:14:11.633Z,47.80
2022-11-24T23:16:40.419Z,47.68
2022-11-24T23:19:09.153Z,47.93
2022-11-24T23:21:38.754Z,47.90
2022-11-24T23:24:08.575Z,48.14
2022-11-24T23:26:39.367Z,48.02
2022-11-24T23:29:08.204Z,47.94
2022-11-24T23:31:39.702Z,47.96
2022-11-24T23:34:08.967Z,47.78
2022-11-24T23:36:37.427Z,48.11
2022-11-24T23:39:08.883Z,48.80
2022-11-24T23:41:37.450Z,48.18
2022-11-24T23:44:06.535Z,48.36
2022-11-24T23:46:35.440Z,48.17
2022-11-24T23:49:03.797Z,48.06
2022-11-24T23:51:33.480Z,48.67
2022-11-24T23:54:01.910Z,48.01
2022-11-24T23:56:32.957Z,48.58
2022-11-24T23:59:03.085Z,48.48
